Terminal Aerodrome Forecast
Issued by NWS Wilmington, OH

Current Version | Previous Version | Graphics & Text | Print | Product List | Glossary Off
Versions: 1 2 3 4 5 6 7 8 9 10 11 12 13 14 15 16 17

883
FTUS41 KILN 220548
TAFILN
TAF
KILN 220548Z 2206/2306 16005KT P6SM BKN045
     FM220900 18005KT P6SM VCSH BKN035
     FM221300 21009KT 5SM -SHRA VCTS OVC040CB
      TEMPO 2213/2216 -TSRA OVC025CB
     FM221600 23012G20KT P6SM SCT040
     FM230000 22012KT P6SM SCT040
     FM230200 23011KT 5SM -SHRA VCTS BKN040CB
     FM230400 24009KT 3SM -TSRA OVC035CB=

USA.gov is the U.S. government's official web portal to all federal, state and local government web resources and services.